Wapping, Connecticut
Current Conditions -  °F | °C
As of 1:53 PM on Monday 20 Oct 2014 (Local Time) from KHFD Reporting Station
Broken Clouds Broken Clouds  
Wind Chill: 54°   Ceiling: 12000
Heat Index: 54°   Visibility: 10mi
Dew Point: 34°   Wind: 13mph
Humidity: 47%   Direction: 210°SSW
Pressure: 30.02"   Gusts: 22mph
Location:  41.8353°N, 72.5722°W
Report Text: KHFD 201753Z 21011G19KT 10SM BKN120 12/01 A3002 RMK AO2 SLP166 T01220011 10128 20022 56025 $
Loading
Personal Weather Stations






























Interactive Weather Map New forecast layout! Learn more

10-Day Weather Forecast

Advertisements
Track Severe Weather on mobile